createdAt,value
2023-11-18T00:00:14.725Z,25.90
2023-11-18T00:02:44.194Z,24.48
2023-11-18T00:05:14.877Z,25.90
2023-11-18T00:07:43.174Z,26.15
2023-11-18T00:10:11.809Z,25.50
2023-11-18T00:12:42.436Z,25.42
2023-11-18T00:15:11.779Z,25.10
2023-11-18T00:17:39.829Z,26.45
2023-11-18T00:20:11.068Z,25.95
2023-11-18T00:22:41.005Z,26.85
2023-11-18T00:25:10.031Z,26.83
2023-11-18T00:27:38.229Z,25.80
2023-11-18T00:30:07.723Z,25.67
2023-11-18T00:32:36.452Z,24.10
2023-11-18T00:35:05.791Z,25.15
2023-11-18T00:37:33.803Z,25.17
2023-11-18T00:40:04.450Z,24.55
2023-11-18T00:42:32.334Z,25.52
2023-11-18T00:45:00.167Z,24.88
2023-11-18T00:47:29.678Z,25.00
2023-11-18T00:49:58.906Z,26.08
2023-11-18T00:52:26.894Z,26.33
2023-11-18T00:54:54.859Z,25.77
2023-11-18T00:57:24.085Z,25.92
2023-11-18T00:59:52.178Z,25.27
2023-11-18T01:02:20.214Z,26.20
2023-11-18T01:04:48.236Z,27.88
2023-11-18T01:07:17.093Z,25.50
2023-11-18T01:09:45.140Z,26.00
2023-11-18T01:12:13.362Z,27.02
2023-11-18T01:14:43.163Z,26.75
2023-11-18T01:17:11.315Z,27.77
2023-11-18T01:19:40.116Z,27.65
2023-11-18T01:22:08.083Z,25.33
2023-11-18T01:24:36.325Z,26.58
2023-11-18T01:27:04.546Z,26.95
2023-11-18T01:29:34.136Z,26.95
2023-11-18T01:32:09.882Z,26.20
2023-11-18T01:34:39.525Z,26.05
2023-11-18T01:37:08.515Z,26.20
2023-11-18T01:39:36.986Z,25.27
2023-11-18T01:42:05.313Z,27.00
2023-11-18T01:44:35.021Z,26.92
2023-11-18T01:47:07.135Z,26.00
2023-11-18T01:49:38.218Z,27.38
2023-11-18T01:52:08.872Z,26.02
2023-11-18T01:54:39.076Z,26.98
2023-11-18T01:57:10.510Z,26.92
2023-11-18T01:59:39.517Z,27.35
2023-11-18T02:02:08.828Z,28.42
2023-11-18T02:04:36.936Z,28.08
2023-11-18T02:07:10.577Z,29.27
2023-11-18T02:09:38.757Z,27.95
2023-11-18T02:12:13.164Z,29.05
2023-11-18T02:14:42.296Z,29.00
2023-11-18T02:17:12.786Z,28.92
2023-11-18T02:19:41.472Z,28.27
2023-11-18T02:22:11.231Z,28.50
2023-11-18T02:24:42.189Z,27.95
2023-11-18T02:27:13.033Z,29.27
2023-11-18T02:29:43.464Z,28.83
2023-11-18T02:32:17.069Z,29.70
2023-11-18T02:34:52.692Z,30.35
2023-11-18T02:37:20.643Z,29.98
2023-11-18T02:39:52.532Z,29.35
2023-11-18T02:42:24.052Z,29.55
2023-11-18T02:45:00.070Z,29.42
2023-11-18T02:47:31.425Z,29.52
2023-11-18T02:50:06.784Z,29.85
2023-11-18T02:52:35.620Z,30.60
2023-11-18T02:55:04.192Z,28.80
2023-11-18T02:57:34.070Z,28.58
2023-11-18T03:00:02.346Z,29.75
2023-11-18T03:02:32.405Z,29.98
2023-11-18T03:05:00.802Z,29.42
2023-11-18T03:07:29.229Z,29.15
2023-11-18T03:09:58.296Z,29.58
2023-11-18T03:12:29.235Z,30.80
2023-11-18T03:14:59.066Z,29.65
2023-11-18T03:17:27.077Z,31.88
2023-11-18T03:19:55.446Z,30.70
2023-11-18T03:22:24.239Z,31.42
2023-11-18T03:24:52.249Z,30.92
2023-11-18T03:27:20.642Z,31.58
2023-11-18T03:29:50.069Z,31.70
2023-11-18T03:32:20.653Z,33.38
2023-11-18T03:34:48.533Z,32.33
2023-11-18T03:37:16.341Z,30.92
2023-11-18T03:39:44.510Z,31.15
2023-11-18T03:42:12.385Z,31.50
2023-11-18T03:44:41.463Z,29.48
2023-11-18T03:47:09.559Z,29.92
2023-11-18T03:49:38.895Z,31.00
2023-11-18T03:52:07.125Z,31.48
2023-11-18T03:54:35.185Z,31.58
2023-11-18T03:57:03.117Z,31.63
2023-11-18T03:59:31.065Z,32.25
2023-11-18T04:01:59.341Z,31.17
2023-11-18T04:04:27.397Z,32.10
2023-11-18T04:06:57.768Z,33.40
2023-11-18T04:09:26.677Z,33.85
2023-11-18T04:11:54.874Z,34.15
2023-11-18T04:14:22.967Z,34.50
2023-11-18T04:16:51.173Z,37.70
2023-11-18T04:19:19.317Z,36.22
2023-11-18T04:21:50.374Z,37.00
2023-11-18T04:24:19.609Z,36.05
2023-11-18T04:26:49.193Z,34.92
2023-11-18T04:29:17.287Z,34.13
2023-11-18T04:31:45.375Z,35.70
2023-11-18T04:34:13.317Z,35.40
2023-11-18T04:36:43.422Z,35.10
2023-11-18T04:39:13.070Z,35.17
2023-11-18T04:41:42.440Z,35.38
2023-11-18T04:44:10.311Z,35.08
2023-11-18T04:46:38.370Z,33.80
2023-11-18T04:49:07.087Z,32.35
2023-11-18T04:51:35.463Z,33.08
2023-11-18T04:54:04.572Z,32.30
2023-11-18T04:56:32.312Z,32.25
2023-11-18T04:59:01.779Z,31.60
2023-11-18T05:01:29.781Z,30.65
2023-11-18T05:03:57.897Z,31.17
2023-11-18T05:06:25.729Z,29.67
2023-11-18T05:08:53.810Z,31.92
2023-11-18T05:11:22.014Z,30.85
2023-11-18T05:13:50.548Z,31.35
2023-11-18T05:16:20.156Z,31.92
2023-11-18T05:18:48.131Z,30.88
2023-11-18T05:21:16.118Z,30.45
2023-11-18T05:23:43.971Z,29.85
2023-11-18T05:26:11.906Z,28.58
2023-11-18T05:28:39.977Z,27.67
2023-11-18T05:31:09.663Z,26.55
2023-11-18T05:33:39.061Z,26.77
2023-11-18T05:36:08.429Z,26.25
2023-11-18T05:38:37.114Z,25.35
2023-11-18T05:41:07.725Z,25.63
2023-11-18T05:43:41.213Z,24.73
2023-11-18T05:46:21.449Z,25.10
2023-11-18T05:48:51.671Z,24.95
2023-11-18T05:51:22.769Z,25.30
2023-11-18T05:53:52.151Z,25.67
2023-11-18T05:56:20.904Z,25.73
2023-11-18T05:58:48.816Z,24.08
2023-11-18T06:01:18.282Z,25.23
2023-11-18T06:03:47.275Z,24.83
2023-11-18T06:06:22.171Z,23.25
2023-11-18T06:08:53.327Z,25.40
2023-11-18T06:11:22.013Z,25.52
2023-11-18T06:13:51.674Z,23.70
2023-11-18T06:16:22.598Z,23.50
2023-11-18T06:18:52.914Z,23.08
2023-11-18T06:21:25.914Z,23.85
2023-11-18T06:23:56.055Z,24.30
2023-11-18T06:26:25.638Z,23.08
2023-11-18T06:28:53.634Z,23.88
2023-11-18T06:31:21.944Z,23.27
2023-11-18T06:33:50.347Z,24.13
2023-11-18T06:36:23.600Z,24.70
2023-11-18T06:38:52.990Z,24.17
2023-11-18T06:41:24.704Z,24.02
2023-11-18T06:44:02.316Z,23.15
2023-11-18T06:46:32.831Z,23.10
2023-11-18T06:49:05.015Z,22.10
2023-11-18T06:51:37.153Z,23.20
2023-11-18T06:54:10.466Z,23.30
2023-11-18T06:56:40.032Z,23.77
2023-11-18T06:59:09.017Z,24.05
2023-11-18T07:01:37.549Z,24.33
2023-11-18T07:04:09.766Z,24.10
2023-11-18T07:06:40.233Z,22.65
2023-11-18T07:09:14.339Z,21.05
2023-11-18T07:14:11.305Z,21.35
2023-11-18T07:16:40.709Z,22.70
2023-11-18T07:19:08.929Z,24.48
2023-11-18T07:21:36.988Z,22.30
2023-11-18T07:24:08.036Z,21.27
2023-11-18T07:26:36.344Z,20.38
2023-11-18T07:29:04.514Z,19.27
2023-11-18T07:31:32.462Z,19.30
2023-11-18T07:34:00.729Z,18.98
2023-11-18T07:36:28.577Z,18.15
2023-11-18T07:38:57.494Z,17.80
2023-11-18T07:41:30.196Z,18.05
2023-11-18T07:44:00.298Z,17.70
2023-11-18T07:46:30.029Z,17.77
2023-11-18T07:48:58.038Z,17.27
2023-11-18T07:51:26.269Z,18.83
2023-11-18T07:53:55.307Z,17.92
2023-11-18T07:56:24.416Z,19.13
2023-11-18T07:58:55.666Z,18.38
2023-11-18T08:01:23.646Z,16.98
2023-11-18T08:03:52.767Z,18.90
2023-11-18T08:06:20.820Z,17.58
2023-11-18T08:08:49.654Z,18.13
2023-11-18T08:11:18.354Z,17.55
2023-11-18T08:13:46.384Z,18.77
2023-11-18T08:16:16.033Z,17.83
2023-11-18T08:18:44.140Z,18.38
2023-11-18T08:21:13.630Z,18.15
2023-11-18T08:23:42.895Z,18.13
2023-11-18T08:26:10.803Z,17.65
2023-11-18T08:28:39.222Z,17.77
2023-11-18T08:31:07.775Z,17.90
2023-11-18T08:33:37.132Z,18.48
2023-11-18T08:36:05.716Z,18.45
2023-11-18T08:38:33.607Z,19.42
2023-11-18T08:41:01.682Z,18.42
2023-11-18T08:43:29.998Z,17.55
2023-11-18T08:45:58.211Z,16.00
2023-11-18T08:48:26.138Z,16.25
2023-11-18T08:50:55.566Z,17.15
2023-11-18T08:53:27.587Z,16.83
2023-11-18T08:55:56.500Z,15.82
2023-11-18T08:58:29.778Z,14.68
2023-11-18T09:01:06.989Z,14.77
2023-11-18T09:03:44.235Z,14.80
2023-11-18T09:06:19.976Z,14.52
2023-11-18T09:08:54.454Z,13.50
2023-11-18T09:11:24.592Z,13.43
2023-11-18T09:13:55.414Z,13.20
2023-11-18T09:16:30.592Z,13.35
2023-11-18T09:19:00.915Z,13.48
2023-11-18T09:21:34.041Z,13.38
2023-11-18T09:24:03.665Z,12.45
2023-11-18T09:26:31.853Z,12.32
2023-11-18T09:29:02.897Z,13.15
2023-11-18T09:31:32.974Z,13.02
2023-11-18T09:34:01.136Z,13.27
2023-11-18T09:36:30.816Z,13.50
2023-11-18T09:38:58.804Z,12.27
2023-11-18T09:41:28.936Z,12.43
2023-11-18T09:44:00.008Z,12.57
2023-11-18T09:46:33.804Z,11.82
2023-11-18T09:51:48.578Z,11.60
2023-11-18T09:54:22.717Z,11.82
2023-11-18T09:56:59.160Z,11.98
2023-11-18T09:59:35.469Z,11.95
2023-11-18T10:02:06.077Z,11.55
2023-11-18T10:04:34.776Z,11.55
2023-11-18T10:07:05.518Z,10.68
2023-11-18T10:09:38.401Z,10.60
2023-11-18T10:12:07.355Z,10.80
2023-11-18T10:14:36.014Z,10.13
2023-11-18T10:17:08.011Z,10.30
2023-11-18T10:20:01.577Z,10.70
2023-11-18T10:22:33.869Z,9.35
2023-11-18T10:25:07.120Z,10.30
2023-11-18T10:27:36.416Z,9.70
2023-11-18T10:30:20.501Z,10.88
2023-11-18T10:33:06.461Z,10.60
2023-11-18T10:35:35.258Z,11.35
2023-11-18T10:38:07.033Z,10.23
2023-11-18T10:40:37.688Z,10.73
2023-11-18T10:43:10.597Z,9.50
2023-11-18T10:45:42.316Z,9.73
2023-11-18T10:48:23.089Z,9.13
2023-11-18T10:50:52.164Z,8.57
2023-11-18T10:53:22.887Z,8.60
2023-11-18T10:55:52.050Z,8.50
2023-11-18T10:58:20.780Z,8.70
2023-11-18T11:00:54.741Z,8.10
2023-11-18T11:03:25.091Z,8.70
2023-11-18T11:05:55.671Z,8.20
2023-11-18T11:08:35.958Z,8.15
2023-11-18T11:11:17.477Z,8.18
2023-11-18T11:13:46.261Z,8.73
2023-11-18T11:16:15.121Z,8.75
2023-11-18T11:18:46.693Z,8.63
2023-11-18T11:21:18.018Z,8.10
2023-11-18T11:23:56.869Z,8.60
2023-11-18T11:26:43.772Z,8.32
2023-11-18T11:29:21.518Z,8.20
2023-11-18T11:32:04.439Z,8.07
2023-11-18T11:34:32.826Z,8.05
2023-11-18T11:37:02.641Z,8.60
2023-11-18T11:39:33.839Z,9.07
2023-11-18T11:42:02.184Z,9.85
2023-11-18T11:44:32.171Z,9.60
2023-11-18T11:47:02.947Z,9.57
2023-11-18T11:49:38.164Z,9.23
2023-11-18T11:52:11.829Z,10.07
2023-11-18T11:54:46.178Z,9.10
2023-11-18T11:57:16.954Z,8.65
2023-11-18T11:59:58.319Z,9.77
2023-11-18T12:02:30.801Z,9.18
2023-11-18T12:05:00.714Z,8.88
2023-11-18T12:07:29.346Z,8.30
2023-11-18T12:10:00.086Z,7.78
2023-11-18T12:12:29.140Z,7.85
2023-11-18T12:14:59.048Z,8.20
2023-11-18T12:17:33.462Z,7.90
2023-11-18T12:20:07.696Z,7.47
2023-11-18T12:23:06.756Z,8.00
2023-11-18T12:25:36.633Z,8.57
2023-11-18T12:28:11.834Z,6.85
2023-11-18T12:30:57.443Z,7.10
2023-11-18T12:33:27.848Z,5.70
2023-11-18T12:36:34.324Z,6.80
2023-11-18T12:39:34.663Z,5.90
2023-11-18T12:42:13.219Z,6.28
2023-11-18T12:45:00.040Z,5.97
2023-11-18T12:47:30.048Z,5.78
2023-11-18T12:49:58.431Z,5.65
2023-11-18T12:52:28.978Z,5.68
2023-11-18T12:55:00.062Z,5.13
2023-11-18T12:57:33.151Z,5.35
2023-11-18T13:00:02.366Z,5.80
2023-11-18T13:02:33.770Z,5.82
2023-11-18T13:05:01.931Z,4.72
2023-11-18T13:07:30.925Z,5.72
2023-11-18T13:10:01.269Z,5.05
2023-11-18T13:12:30.813Z,4.30
2023-11-18T13:14:59.018Z,4.47
2023-11-18T13:17:29.375Z,4.45
2023-11-18T13:19:59.283Z,4.90
2023-11-18T13:22:39.016Z,4.53
2023-11-18T13:25:15.515Z,4.70
2023-11-18T13:27:44.923Z,4.97
2023-11-18T13:30:14.798Z,5.13
2023-11-18T13:32:43.622Z,4.43
2023-11-18T13:35:14.766Z,3.83
2023-11-18T13:37:43.314Z,3.90
2023-11-18T13:40:13.095Z,4.20
2023-11-18T13:42:43.417Z,3.63
2023-11-18T13:45:30.225Z,3.75
2023-11-18T13:48:03.299Z,3.70
2023-11-18T13:50:31.482Z,3.70
2023-11-18T13:52:59.964Z,3.78
2023-11-18T13:55:33.295Z,3.30
2023-11-18T13:58:01.678Z,3.47
2023-11-18T14:00:32.693Z,3.58
2023-11-18T14:03:02.814Z,3.20
2023-11-18T14:05:30.858Z,3.15
2023-11-18T14:08:01.505Z,2.95
2023-11-18T14:10:29.690Z,3.55
2023-11-18T14:13:02.403Z,3.15
2023-11-18T14:15:32.433Z,2.67
2023-11-18T14:18:00.380Z,3.20
2023-11-18T14:20:28.791Z,3.10
2023-11-18T14:22:56.732Z,2.78
2023-11-18T14:25:25.830Z,2.58
2023-11-18T14:27:54.534Z,2.53
2023-11-18T14:30:25.540Z,2.13
2023-11-18T14:32:54.974Z,2.33
2023-11-18T14:35:25.451Z,2.55
2023-11-18T14:37:54.552Z,2.65
2023-11-18T14:40:25.070Z,2.80
2023-11-18T14:42:53.475Z,2.30
2023-11-18T14:45:21.571Z,3.00
2023-11-18T14:47:50.200Z,2.95
2023-11-18T14:50:24.909Z,2.75
2023-11-18T14:52:59.901Z,2.28
2023-11-18T14:55:28.451Z,2.10
2023-11-18T14:57:57.352Z,1.92
2023-11-18T15:00:27.792Z,1.92
2023-11-18T15:03:00.020Z,1.90
2023-11-18T15:05:30.298Z,1.77
2023-11-18T15:07:59.498Z,1.75
2023-11-18T15:10:29.030Z,2.03
2023-11-18T15:12:59.751Z,2.55
2023-11-18T15:15:34.007Z,2.30
2023-11-18T15:18:06.668Z,2.30
2023-11-18T15:20:36.624Z,2.70
2023-11-18T15:23:05.860Z,2.53
2023-11-18T15:25:35.456Z,2.05
2023-11-18T15:28:04.834Z,1.90
2023-11-18T15:30:33.925Z,1.77
2023-11-18T15:33:02.644Z,2.00
2023-11-18T15:35:32.042Z,2.10
2023-11-18T15:38:01.400Z,2.30
2023-11-18T15:40:29.531Z,2.42
2023-11-18T15:42:57.455Z,2.20
2023-11-18T15:45:27.743Z,2.10
2023-11-18T15:47:56.465Z,2.40
2023-11-18T15:50:24.535Z,2.47
2023-11-18T15:52:54.013Z,2.50
2023-11-18T15:55:25.498Z,2.17
2023-11-18T15:57:54.992Z,2.10
2023-11-18T16:00:25.822Z,2.20
2023-11-18T16:02:58.428Z,2.80
2023-11-18T16:05:35.304Z,2.20
2023-11-18T16:08:05.539Z,2.80
2023-11-18T16:10:35.292Z,14.25
2023-11-18T16:13:03.821Z,4.30
2023-11-18T16:15:33.134Z,2.42
2023-11-18T16:18:02.037Z,2.20
2023-11-18T16:20:33.345Z,2.53
2023-11-18T16:23:03.923Z,2.47
2023-11-18T16:25:32.406Z,2.33
2023-11-18T16:28:03.606Z,2.97
2023-11-18T16:30:32.265Z,2.35
2023-11-18T16:33:02.291Z,2.42
2023-11-18T16:35:31.085Z,2.00
2023-11-18T16:38:01.885Z,2.10
2023-11-18T16:40:30.812Z,1.90
2023-11-18T16:43:01.207Z,1.75
2023-11-18T16:45:30.680Z,2.20
2023-11-18T16:47:59.637Z,2.10
2023-11-18T16:50:28.573Z,2.25
2023-11-18T16:52:57.389Z,2.50
2023-11-18T16:55:26.897Z,2.10
2023-11-18T16:57:55.551Z,1.80
2023-11-18T17:00:24.929Z,2.92
2023-11-18T17:02:58.531Z,2.63
2023-11-18T17:05:29.118Z,2.65
2023-11-18T17:07:57.464Z,2.38
2023-11-18T17:10:25.585Z,1.75
2023-11-18T17:12:53.670Z,2.00
2023-11-18T17:15:21.600Z,1.80
2023-11-18T17:17:54.726Z,1.70
2023-11-18T17:20:24.662Z,2.55
2023-11-18T17:22:53.032Z,1.88
2023-11-18T17:25:24.681Z,2.90
2023-11-18T17:27:54.434Z,3.22
2023-11-18T17:30:22.814Z,2.40
2023-11-18T17:32:53.142Z,2.38
2023-11-18T17:35:22.247Z,1.90
2023-11-18T17:37:52.023Z,1.60
2023-11-18T17:40:22.870Z,1.90
2023-11-18T17:42:54.348Z,1.90
2023-11-18T17:45:25.187Z,2.00
2023-11-18T17:47:53.404Z,1.90
2023-11-18T17:50:21.715Z,1.80
2023-11-18T17:52:52.425Z,2.35
2023-11-18T17:55:20.799Z,2.20
2023-11-18T17:57:48.735Z,2.55
2023-11-18T18:00:23.733Z,2.20
2023-11-18T18:02:53.821Z,2.22
2023-11-18T18:05:22.633Z,2.13
2023-11-18T18:07:53.032Z,2.15
2023-11-18T18:10:22.995Z,2.63
2023-11-18T18:12:52.167Z,2.83
2023-11-18T18:15:20.248Z,2.88
2023-11-18T18:17:48.658Z,3.60
2023-11-18T18:20:21.010Z,3.08
2023-11-18T18:22:51.360Z,2.65
2023-11-18T18:25:19.543Z,3.58
2023-11-18T18:27:47.770Z,3.80
2023-11-18T18:30:17.551Z,3.80
2023-11-18T18:32:47.941Z,3.42
2023-11-18T18:35:17.545Z,3.47
2023-11-18T18:37:45.651Z,2.92
2023-11-18T18:40:15.768Z,2.97
2023-11-18T18:42:43.858Z,3.20
2023-11-18T18:45:13.813Z,3.45
2023-11-18T18:47:41.774Z,4.10
2023-11-18T18:50:11.688Z,5.03
2023-11-18T18:52:39.584Z,5.05
2023-11-18T18:55:08.958Z,5.00
2023-11-18T18:57:38.513Z,4.60
2023-11-18T19:00:13.154Z,4.63
2023-11-18T19:02:41.522Z,4.10
2023-11-18T19:05:10.496Z,4.45
2023-11-18T19:07:38.581Z,4.50
2023-11-18T19:10:09.261Z,5.43
2023-11-18T19:12:38.516Z,5.38
2023-11-18T19:15:07.205Z,5.25
2023-11-18T19:17:36.704Z,5.53
2023-11-18T19:20:07.606Z,5.10
2023-11-18T19:22:35.833Z,5.90
2023-11-18T19:25:03.883Z,5.40
2023-11-18T19:27:32.076Z,6.18
2023-11-18T19:30:01.293Z,6.40
2023-11-18T19:32:29.355Z,6.45
2023-11-18T19:34:57.287Z,6.55
2023-11-18T19:37:25.361Z,6.82
2023-11-18T19:39:53.274Z,6.38
2023-11-18T19:42:23.276Z,6.35
2023-11-18T19:44:51.389Z,6.63
2023-11-18T19:47:20.972Z,6.97
2023-11-18T19:49:49.201Z,7.10
2023-11-18T19:52:17.259Z,6.95
2023-11-18T19:54:46.203Z,7.15
2023-11-18T19:57:14.166Z,7.05
2023-11-18T19:59:42.300Z,6.95
2023-11-18T20:02:11.258Z,8.88
2023-11-18T20:04:43.102Z,8.07
2023-11-18T20:07:12.448Z,7.75
2023-11-18T20:09:40.781Z,7.35
2023-11-18T20:12:09.663Z,7.38
2023-11-18T20:14:38.271Z,8.35
2023-11-18T20:17:07.591Z,7.68
2023-11-18T20:19:36.829Z,7.65
2023-11-18T20:22:06.364Z,7.88
2023-11-18T20:24:35.787Z,7.90
2023-11-18T20:27:03.924Z,7.75
2023-11-18T20:29:32.025Z,7.68
2023-11-18T20:32:02.727Z,7.72
2023-11-18T20:34:31.702Z,7.15
2023-11-18T20:36:59.907Z,7.43
2023-11-18T20:39:29.556Z,8.40
2023-11-18T20:41:57.558Z,8.50
2023-11-18T20:44:25.637Z,7.85
2023-11-18T20:46:54.132Z,9.32
2023-11-18T20:49:22.151Z,8.55
2023-11-18T20:51:50.865Z,8.50
2023-11-18T20:54:19.025Z,16.83
2023-11-18T20:56:48.453Z,12.77
2023-11-18T20:59:19.609Z,9.43
2023-11-18T21:01:47.995Z,8.95
2023-11-18T21:04:16.995Z,8.68
2023-11-18T21:06:45.094Z,8.73
2023-11-18T21:09:12.069Z,9.30
2023-11-18T21:11:40.013Z,9.50
2023-11-18T21:14:09.357Z,10.70
2023-11-18T21:16:37.386Z,11.02
2023-11-18T21:19:07.729Z,10.50
2023-11-18T21:21:35.808Z,11.73
2023-11-18T21:24:07.304Z,10.65
2023-11-18T21:26:35.317Z,10.90
2023-11-18T21:29:03.272Z,11.07
2023-11-18T21:31:32.899Z,12.25
2023-11-18T21:34:05.610Z,12.00
2023-11-18T21:36:33.632Z,13.90
2023-11-18T21:39:01.485Z,12.82
2023-11-18T21:41:29.454Z,11.02
2023-11-18T21:43:59.264Z,11.15
2023-11-18T21:46:28.468Z,11.10
2023-11-18T21:48:57.766Z,11.23
2023-11-18T21:51:25.700Z,11.20
2023-11-18T21:53:53.835Z,10.50
2023-11-18T21:56:22.801Z,10.40
2023-11-18T21:58:50.720Z,11.25
2023-11-18T22:01:18.618Z,12.23
2023-11-18T22:03:46.782Z,11.70
2023-11-18T22:06:16.498Z,13.63
2023-11-18T22:08:44.340Z,15.27
2023-11-18T22:11:12.490Z,15.38
2023-11-18T22:13:40.421Z,14.95
2023-11-18T22:16:09.538Z,12.73
2023-11-18T22:18:37.734Z,13.35
2023-11-18T22:21:07.803Z,12.82
2023-11-18T22:23:38.736Z,12.85
2023-11-18T22:26:08.562Z,13.13
2023-11-18T22:28:39.152Z,13.65
2023-11-18T22:31:08.011Z,14.23
2023-11-18T22:33:37.104Z,13.18
2023-11-18T22:36:08.270Z,12.38
2023-11-18T22:38:39.214Z,13.13
2023-11-18T22:41:10.566Z,15.95
2023-11-18T22:43:38.463Z,17.02
2023-11-18T22:46:07.187Z,13.52
2023-11-18T22:48:35.183Z,12.30
2023-11-18T22:51:04.539Z,11.77
2023-11-18T22:53:32.474Z,11.13
2023-11-18T22:56:01.888Z,11.20
2023-11-18T22:58:29.871Z,11.50
2023-11-18T23:00:58.118Z,10.25
2023-11-18T23:03:27.484Z,10.40
2023-11-18T23:05:55.521Z,10.02
2023-11-18T23:08:23.853Z,10.13
2023-11-18T23:10:52.416Z,9.63
2023-11-18T23:13:24.100Z,8.13
2023-11-18T23:15:56.891Z,8.10
2023-11-18T23:18:24.956Z,7.40
2023-11-18T23:20:53.172Z,7.18
2023-11-18T23:23:21.639Z,7.10
2023-11-18T23:25:49.852Z,7.47
2023-11-18T23:28:18.083Z,7.95
2023-11-18T23:30:47.627Z,6.68
2023-11-18T23:33:19.527Z,6.10
2023-11-18T23:35:47.452Z,5.60
2023-11-18T23:38:15.792Z,5.78
2023-11-18T23:40:43.715Z,5.60
2023-11-18T23:43:11.821Z,5.03
2023-11-18T23:45:40.077Z,5.60
2023-11-18T23:48:11.210Z,5.45
2023-11-18T23:50:39.294Z,5.20
2023-11-18T23:53:08.083Z,5.05
2023-11-18T23:55:36.340Z,4.50
2023-11-18T23:58:04.496Z,4.43
